sensor_id;sensor_type;location;lat;lon;timestamp;temperature;humidity
2130;DHT22;1071;52.544;13.374;2023-04-01T00:00:27;12.60;99.90
2130;DHT22;1071;52.544;13.374;2023-04-01T00:02:57;12.60;99.90
2130;DHT22;1071;52.544;13.374;2023-04-01T00:05:26;12.60;99.90
2130;DHT22;1071;52.544;13.374;2023-04-01T00:07:53;12.60;99.90
2130;DHT22;1071;52.544;13.374;2023-04-01T00:10:20;12.60;99.90
2130;DHT22;1071;52.544;13.374;2023-04-01T00:12:48;12.60;99.90
2130;DHT22;1071;52.544;13.374;2023-04-01T00:15:15;12.60;99.90
2130;DHT22;1071;52.544;13.374;2023-04-01T00:17:42;12.60;99.90
2130;DHT22;1071;52.544;13.374;2023-04-01T00:20:11;12.60;99.90
2130;DHT22;1071;52.544;13.374;2023-04-01T00:22:39;12.60;99.90
2130;DHT22;1071;52.544;13.374;2023-04-01T00:25:09;12.60;99.90
2130;DHT22;1071;52.544;13.374;2023-04-01T00:27:36;12.60;99.90
2130;DHT22;1071;52.544;13.374;2023-04-01T00:30:16;12.50;99.90
2130;DHT22;1071;52.544;13.374;2023-04-01T00:32:44;12.60;99.90
2130;DHT22;1071;52.544;13.374;2023-04-01T00:35:11;12.50;99.90
2130;DHT22;1071;52.544;13.374;2023-04-01T00:37:40;12.50;99.90
2130;DHT22;1071;52.544;13.374;2023-04-01T00:40:20;12.50;99.90
2130;DHT22;1071;52.544;13.374;2023-04-01T00:42:54;12.50;99.90
2130;DHT22;1071;52.544;13.374;2023-04-01T00:45:28;12.50;99.90
2130;DHT22;1071;52.544;13.374;2023-04-01T00:47:58;12.50;99.90
2130;DHT22;1071;52.544;13.374;2023-04-01T00:50:27;12.50;99.90
2130;DHT22;1071;52.544;13.374;2023-04-01T00:52:58;12.50;99.90
2130;DHT22;1071;52.544;13.374;2023-04-01T00:55:33;12.50;99.90
2130;DHT22;1071;52.544;13.374;2023-04-01T00:58:05;12.50;99.90
2130;DHT22;1071;52.544;13.374;2023-04-01T01:00:37;12.50;99.90
2130;DHT22;1071;52.544;13.374;2023-04-01T01:03:05;12.50;99.90
2130;DHT22;1071;52.544;13.374;2023-04-01T01:05:43;12.50;99.90
2130;DHT22;1071;52.544;13.374;2023-04-01T01:08:19;12.50;99.90
2130;DHT22;1071;52.544;13.374;2023-04-01T01:10:50;12.50;99.90
2130;DHT22;1071;52.544;13.374;2023-04-01T01:13:22;12.50;99.90
2130;DHT22;1071;52.544;13.374;2023-04-01T01:15:59;12.50;99.90
2130;DHT22;1071;52.544;13.374;2023-04-01T01:18:43;12.50;99.90
2130;DHT22;1071;52.544;13.374;2023-04-01T01:21:50;12.50;99.90
2130;DHT22;1071;52.544;13.374;2023-04-01T01:24:43;12.50;99.90
2130;DHT22;1071;52.544;13.374;2023-04-01T01:27:18;12.50;99.90
2130;DHT22;1071;52.544;13.374;2023-04-01T01:30:23;12.50;99.90
2130;DHT22;1071;52.544;13.374;2023-04-01T01:33:39;12.50;99.90
2130;DHT22;1071;52.544;13.374;2023-04-01T01:36:13;12.50;99.90
2130;DHT22;1071;52.544;13.374;2023-04-01T01:38:42;12.50;99.90
2130;DHT22;1071;52.544;13.374;2023-04-01T01:41:10;12.50;99.90
2130;DHT22;1071;52.544;13.374;2023-04-01T01:43:41;12.50;99.90
2130;DHT22;1071;52.544;13.374;2023-04-01T01:46:11;12.50;99.90
2130;DHT22;1071;52.544;13.374;2023-04-01T01:48:40;12.50;99.90
2130;DHT22;1071;52.544;13.374;2023-04-01T01:51:11;12.50;99.90
2130;DHT22;1071;52.544;13.374;2023-04-01T01:53:38;12.50;99.90
2130;DHT22;1071;52.544;13.374;2023-04-01T01:56:05;12.50;99.90
2130;DHT22;1071;52.544;13.374;2023-04-01T01:58:35;12.50;99.90
2130;DHT22;1071;52.544;13.374;2023-04-01T02:01:09;12.50;99.90
2130;DHT22;1071;52.544;13.374;2023-04-01T02:03:39;12.50;99.90
2130;DHT22;1071;52.544;13.374;2023-04-01T02:06:11;12.50;99.90
2130;DHT22;1071;52.544;13.374;2023-04-01T02:08:43;12.50;99.90
2130;DHT22;1071;52.544;13.374;2023-04-01T02:11:14;12.50;99.90
2130;DHT22;1071;52.544;13.374;2023-04-01T02:13:49;12.50;99.90
2130;DHT22;1071;52.544;13.374;2023-04-01T02:16:21;12.50;99.90
2130;DHT22;1071;52.544;13.374;2023-04-01T02:18:52;12.50;99.90
2130;DHT22;1071;52.544;13.374;2023-04-01T02:21:22;12.50;99.90
2130;DHT22;1071;52.544;13.374;2023-04-01T02:23:52;12.50;99.90
2130;DHT22;1071;52.544;13.374;2023-04-01T02:26:21;12.50;99.90
2130;DHT22;1071;52.544;13.374;2023-04-01T02:28:50;12.50;99.90
2130;DHT22;1071;52.544;13.374;2023-04-01T02:31:17;12.60;99.90
2130;DHT22;1071;52.544;13.374;2023-04-01T02:33:45;12.50;99.90
2130;DHT22;1071;52.544;13.374;2023-04-01T02:36:14;12.60;99.90
2130;DHT22;1071;52.544;13.374;2023-04-01T02:38:47;12.60;99.90
2130;DHT22;1071;52.544;13.374;2023-04-01T02:41:36;12.60;99.90
2130;DHT22;1071;52.544;13.374;2023-04-01T02:44:17;12.60;99.90
2130;DHT22;1071;52.544;13.374;2023-04-01T02:46:45;12.70;99.90
2130;DHT22;1071;52.544;13.374;2023-04-01T02:49:15;12.70;99.90
2130;DHT22;1071;52.544;13.374;2023-04-01T02:51:45;12.70;99.90
2130;DHT22;1071;52.544;13.374;2023-04-01T02:54:12;12.70;99.90
2130;DHT22;1071;52.544;13.374;2023-04-01T02:56:43;12.80;99.90
2130;DHT22;1071;52.544;13.374;2023-04-01T02:59:11;12.80;99.90
2130;DHT22;1071;52.544;13.374;2023-04-01T03:01:38;12.80;99.90
2130;DHT22;1071;52.544;13.374;2023-04-01T03:04:08;12.80;99.90
2130;DHT22;1071;52.544;13.374;2023-04-01T03:06:35;12.80;99.90
2130;DHT22;1071;52.544;13.374;2023-04-01T03:09:03;12.80;99.90
2130;DHT22;1071;52.544;13.374;2023-04-01T03:11:30;12.80;99.90
2130;DHT22;1071;52.544;13.374;2023-04-01T03:13:59;12.80;99.90
2130;DHT22;1071;52.544;13.374;2023-04-01T03:16:28;12.80;99.90
2130;DHT22;1071;52.544;13.374;2023-04-01T03:18:55;12.80;99.90
2130;DHT22;1071;52.544;13.374;2023-04-01T03:21:24;12.80;99.90
2130;DHT22;1071;52.544;13.374;2023-04-01T03:23:52;12.80;99.90
2130;DHT22;1071;52.544;13.374;2023-04-01T03:26:22;12.80;99.90
2130;DHT22;1071;52.544;13.374;2023-04-01T03:28:49;12.80;99.90
2130;DHT22;1071;52.544;13.374;2023-04-01T03:31:18;12.80;99.90
2130;DHT22;1071;52.544;13.374;2023-04-01T03:33:45;12.80;99.90
2130;DHT22;1071;52.544;13.374;2023-04-01T03:36:17;12.80;99.90
2130;DHT22;1071;52.544;13.374;2023-04-01T03:38:44;12.80;99.90
2130;DHT22;1071;52.544;13.374;2023-04-01T03:41:12;12.80;99.90
2130;DHT22;1071;52.544;13.374;2023-04-01T03:43:40;12.70;99.90
2130;DHT22;1071;52.544;13.374;2023-04-01T03:46:10;12.70;99.90
2130;DHT22;1071;52.544;13.374;2023-04-01T03:48:40;12.70;99.90
2130;DHT22;1071;52.544;13.374;2023-04-01T03:51:09;12.70;99.90
2130;DHT22;1071;52.544;13.374;2023-04-01T03:53:36;12.70;99.90
2130;DHT22;1071;52.544;13.374;2023-04-01T03:56:07;12.70;99.90
2130;DHT22;1071;52.544;13.374;2023-04-01T03:58:36;12.70;99.90
2130;DHT22;1071;52.544;13.374;2023-04-01T04:01:15;12.70;99.90
2130;DHT22;1071;52.544;13.374;2023-04-01T04:03:44;12.70;99.90
2130;DHT22;1071;52.544;13.374;2023-04-01T04:06:12;12.70;99.90
2130;DHT22;1071;52.544;13.374;2023-04-01T04:08:40;12.70;99.90
2130;DHT22;1071;52.544;13.374;2023-04-01T04:11:08;12.70;99.90
2130;DHT22;1071;52.544;13.374;2023-04-01T04:13:35;12.70;99.90
2130;DHT22;1071;52.544;13.374;2023-04-01T04:16:03;12.70;99.90
2130;DHT22;1071;52.544;13.374;2023-04-01T04:18:30;12.70;99.90
2130;DHT22;1071;52.544;13.374;2023-04-01T04:21:00;12.70;99.90
2130;DHT22;1071;52.544;13.374;2023-04-01T04:23:27;12.70;99.90
2130;DHT22;1071;52.544;13.374;2023-04-01T04:25:56;12.70;99.90
2130;DHT22;1071;52.544;13.374;2023-04-01T04:28:24;12.70;99.90
2130;DHT22;1071;52.544;13.374;2023-04-01T04:30:51;12.70;99.90
2130;DHT22;1071;52.544;13.374;2023-04-01T04:33:21;12.70;99.90
2130;DHT22;1071;52.544;13.374;2023-04-01T04:35:50;12.70;99.90
2130;DHT22;1071;52.544;13.374;2023-04-01T04:38:19;12.70;99.90
2130;DHT22;1071;52.544;13.374;2023-04-01T04:40:46;12.70;99.90
2130;DHT22;1071;52.544;13.374;2023-04-01T04:43:15;12.70;99.90
2130;DHT22;1071;52.544;13.374;2023-04-01T04:45:43;12.70;99.90
2130;DHT22;1071;52.544;13.374;2023-04-01T04:48:13;12.70;99.90
2130;DHT22;1071;52.544;13.374;2023-04-01T04:50:44;12.70;99.90
2130;DHT22;1071;52.544;13.374;2023-04-01T04:53:11;12.70;99.90
2130;DHT22;1071;52.544;13.374;2023-04-01T04:55:44;12.70;99.90
2130;DHT22;1071;52.544;13.374;2023-04-01T04:58:12;12.70;99.90
2130;DHT22;1071;52.544;13.374;2023-04-01T05:00:39;12.70;99.90
2130;DHT22;1071;52.544;13.374;2023-04-01T05:03:06;12.70;99.90
2130;DHT22;1071;52.544;13.374;2023-04-01T05:05:49;12.70;99.90
2130;DHT22;1071;52.544;13.374;2023-04-01T05:08:20;12.70;99.90
2130;DHT22;1071;52.544;13.374;2023-04-01T05:10:50;12.70;99.90
2130;DHT22;1071;52.544;13.374;2023-04-01T05:13:19;12.70;99.90
2130;DHT22;1071;52.544;13.374;2023-04-01T05:15:48;12.70;99.90
2130;DHT22;1071;52.544;13.374;2023-04-01T05:18:16;12.80;99.90
2130;DHT22;1071;52.544;13.374;2023-04-01T05:20:47;12.80;99.90
2130;DHT22;1071;52.544;13.374;2023-04-01T05:23:15;12.80;99.90
2130;DHT22;1071;52.544;13.374;2023-04-01T05:25:42;12.80;99.90
2130;DHT22;1071;52.544;13.374;2023-04-01T05:28:11;12.80;99.90
2130;DHT22;1071;52.544;13.374;2023-04-01T05:30:39;12.80;99.90
2130;DHT22;1071;52.544;13.374;2023-04-01T05:33:07;12.80;99.90
2130;DHT22;1071;52.544;13.374;2023-04-01T05:35:34;12.80;99.90
2130;DHT22;1071;52.544;13.374;2023-04-01T05:38:02;12.80;99.90
2130;DHT22;1071;52.544;13.374;2023-04-01T05:40:31;12.80;99.90
2130;DHT22;1071;52.544;13.374;2023-04-01T05:42:58;12.80;99.90
2130;DHT22;1071;52.544;13.374;2023-04-01T05:45:27;12.80;99.90
2130;DHT22;1071;52.544;13.374;2023-04-01T05:47:54;12.80;99.90
2130;DHT22;1071;52.544;13.374;2023-04-01T05:50:22;12.80;99.90
2130;DHT22;1071;52.544;13.374;2023-04-01T05:52:49;12.80;99.90
2130;DHT22;1071;52.544;13.374;2023-04-01T05:55:16;12.80;99.90
2130;DHT22;1071;52.544;13.374;2023-04-01T05:57:44;12.80;99.90
2130;DHT22;1071;52.544;13.374;2023-04-01T06:00:14;12.80;99.90
2130;DHT22;1071;52.544;13.374;2023-04-01T06:02:43;12.80;99.90
2130;DHT22;1071;52.544;13.374;2023-04-01T06:05:14;12.80;99.90
2130;DHT22;1071;52.544;13.374;2023-04-01T06:07:42;12.80;99.90
2130;DHT22;1071;52.544;13.374;2023-04-01T06:10:14;12.80;99.90
2130;DHT22;1071;52.544;13.374;2023-04-01T06:13:01;12.80;99.90
2130;DHT22;1071;52.544;13.374;2023-04-01T06:15:36;12.80;99.90
2130;DHT22;1071;52.544;13.374;2023-04-01T06:21:53;12.80;99.90
2130;DHT22;1071;52.544;13.374;2023-04-01T06:24:36;12.80;99.90
2130;DHT22;1071;52.544;13.374;2023-04-01T06:27:16;12.80;99.90
2130;DHT22;1071;52.544;13.374;2023-04-01T06:29:54;12.80;99.90
2130;DHT22;1071;52.544;13.374;2023-04-01T06:32:46;12.80;99.90
2130;DHT22;1071;52.544;13.374;2023-04-01T06:35:38;12.80;99.90
2130;DHT22;1071;52.544;13.374;2023-04-01T06:38:28;12.80;99.90
2130;DHT22;1071;52.544;13.374;2023-04-01T06:41:23;12.90;99.90
2130;DHT22;1071;52.544;13.374;2023-04-01T06:44:04;12.80;99.90
2130;DHT22;1071;52.544;13.374;2023-04-01T06:46:40;12.90;99.90
2130;DHT22;1071;52.544;13.374;2023-04-01T06:49:38;12.90;99.90
2130;DHT22;1071;52.544;13.374;2023-04-01T06:52:26;12.90;99.90
2130;DHT22;1071;52.544;13.374;2023-04-01T06:55:03;12.90;99.90
2130;DHT22;1071;52.544;13.374;2023-04-01T06:57:41;12.90;99.90
2130;DHT22;1071;52.544;13.374;2023-04-01T07:00:13;12.90;99.90
2130;DHT22;1071;52.544;13.374;2023-04-01T07:02:45;12.90;99.90
2130;DHT22;1071;52.544;13.374;2023-04-01T07:05:19;12.90;99.90
2130;DHT22;1071;52.544;13.374;2023-04-01T07:07:50;12.90;99.90
2130;DHT22;1071;52.544;13.374;2023-04-01T07:10:21;12.90;99.90
2130;DHT22;1071;52.544;13.374;2023-04-01T07:12:52;13.00;99.90
2130;DHT22;1071;52.544;13.374;2023-04-01T07:15:24;13.00;99.90
2130;DHT22;1071;52.544;13.374;2023-04-01T07:18:02;13.00;99.90
2130;DHT22;1071;52.544;13.374;2023-04-01T07:20:32;13.00;99.90
2130;DHT22;1071;52.544;13.374;2023-04-01T07:23:05;13.00;99.90
2130;DHT22;1071;52.544;13.374;2023-04-01T07:25:36;13.00;99.90
2130;DHT22;1071;52.544;13.374;2023-04-01T07:28:11;13.00;99.90
2130;DHT22;1071;52.544;13.374;2023-04-01T07:30:46;13.00;99.90
2130;DHT22;1071;52.544;13.374;2023-04-01T07:33:18;13.00;99.90
2130;DHT22;1071;52.544;13.374;2023-04-01T07:35:52;13.00;99.90
2130;DHT22;1071;52.544;13.374;2023-04-01T07:38:28;13.10;99.90
2130;DHT22;1071;52.544;13.374;2023-04-01T07:41:05;13.10;99.90
2130;DHT22;1071;52.544;13.374;2023-04-01T07:43:45;13.10;99.90
2130;DHT22;1071;52.544;13.374;2023-04-01T07:46:29;13.10;99.90
2130;DHT22;1071;52.544;13.374;2023-04-01T07:49:04;13.10;99.90
2130;DHT22;1071;52.544;13.374;2023-04-01T07:51:38;13.10;99.90
2130;DHT22;1071;52.544;13.374;2023-04-01T07:54:16;13.20;99.90
2130;DHT22;1071;52.544;13.374;2023-04-01T07:56:51;13.20;99.90
2130;DHT22;1071;52.544;13.374;2023-04-01T07:59:27;13.20;99.90
2130;DHT22;1071;52.544;13.374;2023-04-01T08:02:05;13.20;99.90
2130;DHT22;1071;52.544;13.374;2023-04-01T08:04:46;13.20;99.90
2130;DHT22;1071;52.544;13.374;2023-04-01T08:07:17;13.30;99.90
2130;DHT22;1071;52.544;13.374;2023-04-01T08:09:55;13.30;99.90
2130;DHT22;1071;52.544;13.374;2023-04-01T08:12:35;13.30;99.90
2130;DHT22;1071;52.544;13.374;2023-04-01T08:15:12;13.30;99.90
2130;DHT22;1071;52.544;13.374;2023-04-01T08:17:48;13.20;99.90
2130;DHT22;1071;52.544;13.374;2023-04-01T08:20:27;13.30;99.90
2130;DHT22;1071;52.544;13.374;2023-04-01T08:23:00;13.20;99.90
2130;DHT22;1071;52.544;13.374;2023-04-01T08:25:32;13.20;99.90
2130;DHT22;1071;52.544;13.374;2023-04-01T08:28:04;13.10;99.90
2130;DHT22;1071;52.544;13.374;2023-04-01T08:30:40;13.10;99.90
2130;DHT22;1071;52.544;13.374;2023-04-01T08:33:13;13.10;99.90
2130;DHT22;1071;52.544;13.374;2023-04-01T08:35:47;13.00;99.90
2130;DHT22;1071;52.544;13.374;2023-04-01T08:38:17;13.00;99.90
2130;DHT22;1071;52.544;13.374;2023-04-01T08:40:59;12.90;99.90
2130;DHT22;1071;52.544;13.374;2023-04-01T08:47:13;12.80;99.90
2130;DHT22;1071;52.544;13.374;2023-04-01T08:50:01;12.80;99.90
2130;DHT22;1071;52.544;13.374;2023-04-01T08:52:36;12.70;99.90
2130;DHT22;1071;52.544;13.374;2023-04-01T08:55:24;12.70;99.90
2130;DHT22;1071;52.544;13.374;2023-04-01T08:58:26;12.60;99.90
2130;DHT22;1071;52.544;13.374;2023-04-01T09:01:14;12.60;99.90
2130;DHT22;1071;52.544;13.374;2023-04-01T09:07:04;12.40;99.90
2130;DHT22;1071;52.544;13.374;2023-04-01T09:09:49;12.40;99.90
2130;DHT22;1071;52.544;13.374;2023-04-01T09:12:35;12.30;99.90
2130;DHT22;1071;52.544;13.374;2023-04-01T09:15:26;12.30;99.90
2130;DHT22;1071;52.544;13.374;2023-04-01T09:18:22;12.30;99.90
2130;DHT22;1071;52.544;13.374;2023-04-01T09:21:11;12.30;99.90
2130;DHT22;1071;52.544;13.374;2023-04-01T09:26:44;12.30;99.90
2130;DHT22;1071;52.544;13.374;2023-04-01T09:29:29;12.20;99.90
2130;DHT22;1071;52.544;13.374;2023-04-01T09:32:16;12.20;99.90
2130;DHT22;1071;52.544;13.374;2023-04-01T09:34:53;12.20;99.90
2130;DHT22;1071;52.544;13.374;2023-04-01T09:37:24;12.20;99.90
2130;DHT22;1071;52.544;13.374;2023-04-01T09:43:07;12.10;99.90
2130;DHT22;1071;52.544;13.374;2023-04-01T09:45:47;12.10;99.90
2130;DHT22;1071;52.544;13.374;2023-04-01T09:48:30;12.10;99.90
2130;DHT22;1071;52.544;13.374;2023-04-01T09:51:05;12.10;99.90
2130;DHT22;1071;52.544;13.374;2023-04-01T09:53:48;12.00;99.90
2130;DHT22;1071;52.544;13.374;2023-04-01T09:57:02;12.00;99.90
2130;DHT22;1071;52.544;13.374;2023-04-01T10:08:55;12.00;99.90
2130;DHT22;1071;52.544;13.374;2023-04-01T10:12:03;12.00;99.90
2130;DHT22;1071;52.544;13.374;2023-04-01T10:14:59;12.00;99.90
2130;DHT22;1071;52.544;13.374;2023-04-01T10:17:51;11.90;99.90
2130;DHT22;1071;52.544;13.374;2023-04-01T10:20:50;11.90;99.90
2130;DHT22;1071;52.544;13.374;2023-04-01T10:26:36;11.80;99.90
2130;DHT22;1071;52.544;13.374;2023-04-01T10:32:48;11.70;99.90
2130;DHT22;1071;52.544;13.374;2023-04-01T10:35:36;11.70;99.90
2130;DHT22;1071;52.544;13.374;2023-04-01T10:38:23;11.70;99.90
2130;DHT22;1071;52.544;13.374;2023-04-01T10:41:23;11.70;99.90
2130;DHT22;1071;52.544;13.374;2023-04-01T10:47:38;11.70;99.90
2130;DHT22;1071;52.544;13.374;2023-04-01T10:50:25;11.70;99.90
2130;DHT22;1071;52.544;13.374;2023-04-01T10:53:34;11.70;99.90
2130;DHT22;1071;52.544;13.374;2023-04-01T10:59:44;11.70;99.90
2130;DHT22;1071;52.544;13.374;2023-04-01T11:02:51;11.60;99.90
2130;DHT22;1071;52.544;13.374;2023-04-01T11:05:42;11.60;99.90
2130;DHT22;1071;52.544;13.374;2023-04-01T11:12:09;11.50;99.90
2130;DHT22;1071;52.544;13.374;2023-04-01T11:18:28;11.60;99.90
2130;DHT22;1071;52.544;13.374;2023-04-01T11:24:18;11.40;99.90
2130;DHT22;1071;52.544;13.374;2023-04-01T11:26:57;11.30;99.90
2130;DHT22;1071;52.544;13.374;2023-04-01T11:32:59;11.30;99.90
2130;DHT22;1071;52.544;13.374;2023-04-01T11:35:42;11.30;99.90
2130;DHT22;1071;52.544;13.374;2023-04-01T11:38:19;11.30;99.90
2130;DHT22;1071;52.544;13.374;2023-04-01T11:40:58;11.30;99.90
2130;DHT22;1071;52.544;13.374;2023-04-01T11:43:32;11.30;99.90
2130;DHT22;1071;52.544;13.374;2023-04-01T11:46:06;11.40;99.90
2130;DHT22;1071;52.544;13.374;2023-04-01T11:48:47;11.30;99.90
2130;DHT22;1071;52.544;13.374;2023-04-01T11:51:41;11.40;99.90
2130;DHT22;1071;52.544;13.374;2023-04-01T11:54:22;11.40;99.90
2130;DHT22;1071;52.544;13.374;2023-04-01T11:57:07;11.40;99.90
2130;DHT22;1071;52.544;13.374;2023-04-01T11:59:51;11.40;99.90
2130;DHT22;1071;52.544;13.374;2023-04-01T12:02:28;11.40;99.90
2130;DHT22;1071;52.544;13.374;2023-04-01T12:05:17;11.40;99.90
2130;DHT22;1071;52.544;13.374;2023-04-01T12:08:10;11.40;99.90
2130;DHT22;1071;52.544;13.374;2023-04-01T12:10:46;11.30;99.90
2130;DHT22;1071;52.544;13.374;2023-04-01T12:13:27;11.30;99.90
2130;DHT22;1071;52.544;13.374;2023-04-01T12:16:20;11.30;99.90
2130;DHT22;1071;52.544;13.374;2023-04-01T12:18:53;11.30;99.90
2130;DHT22;1071;52.544;13.374;2023-04-01T12:21:26;11.30;99.90
2130;DHT22;1071;52.544;13.374;2023-04-01T12:24:22;11.30;99.90
2130;DHT22;1071;52.544;13.374;2023-04-01T12:27:20;11.30;99.90
2130;DHT22;1071;52.544;13.374;2023-04-01T12:30:14;11.20;99.90
2130;DHT22;1071;52.544;13.374;2023-04-01T12:32:49;11.10;99.90
2130;DHT22;1071;52.544;13.374;2023-04-01T12:35:24;11.00;99.90
2130;DHT22;1071;52.544;13.374;2023-04-01T12:38:11;11.00;99.90
2130;DHT22;1071;52.544;13.374;2023-04-01T12:41:08;11.00;99.90
2130;DHT22;1071;52.544;13.374;2023-04-01T12:44:06;10.90;99.90
2130;DHT22;1071;52.544;13.374;2023-04-01T12:47:09;10.90;99.90
2130;DHT22;1071;52.544;13.374;2023-04-01T12:50:01;10.90;99.90
2130;DHT22;1071;52.544;13.374;2023-04-01T12:52:49;10.90;99.90
2130;DHT22;1071;52.544;13.374;2023-04-01T12:55:40;11.00;99.90
2130;DHT22;1071;52.544;13.374;2023-04-01T12:58:40;10.90;99.90
2130;DHT22;1071;52.544;13.374;2023-04-01T13:01:31;10.90;99.90
2130;DHT22;1071;52.544;13.374;2023-04-01T13:07:16;10.80;99.90
2130;DHT22;1071;52.544;13.374;2023-04-01T13:09:55;10.70;99.90
2130;DHT22;1071;52.544;13.374;2023-04-01T13:12:55;10.70;99.90
2130;DHT22;1071;52.544;13.374;2023-04-01T13:15:48;10.70;99.90
2130;DHT22;1071;52.544;13.374;2023-04-01T13:18:31;10.70;99.90
2130;DHT22;1071;52.544;13.374;2023-04-01T13:21:12;10.70;99.90
2130;DHT22;1071;52.544;13.374;2023-04-01T13:23:54;10.70;99.90
2130;DHT22;1071;52.544;13.374;2023-04-01T13:26:36;10.60;99.90
2130;DHT22;1071;52.544;13.374;2023-04-01T13:29:10;10.60;99.90
2130;DHT22;1071;52.544;13.374;2023-04-01T13:31:50;10.60;99.90
2130;DHT22;1071;52.544;13.374;2023-04-01T13:34:28;10.60;99.90
2130;DHT22;1071;52.544;13.374;2023-04-01T13:37:05;10.60;99.90
2130;DHT22;1071;52.544;13.374;2023-04-01T13:39:53;10.60;99.90
2130;DHT22;1071;52.544;13.374;2023-04-01T13:42:28;10.60;99.90
2130;DHT22;1071;52.544;13.374;2023-04-01T13:45:01;10.50;99.90
2130;DHT22;1071;52.544;13.374;2023-04-01T13:48:00;10.50;99.90
2130;DHT22;1071;52.544;13.374;2023-04-01T13:50:51;10.50;99.90
2130;DHT22;1071;52.544;13.374;2023-04-01T13:54:03;10.50;99.90
2130;DHT22;1071;52.544;13.374;2023-04-01T13:56:41;10.50;99.90
2130;DHT22;1071;52.544;13.374;2023-04-01T14:02:33;10.50;99.90
2130;DHT22;1071;52.544;13.374;2023-04-01T14:05:20;10.50;99.90
2130;DHT22;1071;52.544;13.374;2023-04-01T14:08:01;10.50;99.90
2130;DHT22;1071;52.544;13.374;2023-04-01T14:10:36;10.40;99.90
2130;DHT22;1071;52.544;13.374;2023-04-01T14:13:15;10.40;99.90
2130;DHT22;1071;52.544;13.374;2023-04-01T14:19:08;10.50;99.90
2130;DHT22;1071;52.544;13.374;2023-04-01T14:21:41;10.60;99.90
2130;DHT22;1071;52.544;13.374;2023-04-01T14:24:51;10.60;99.90
2130;DHT22;1071;52.544;13.374;2023-04-01T14:27:35;10.60;99.90
2130;DHT22;1071;52.544;13.374;2023-04-01T14:33:01;10.70;99.90
2130;DHT22;1071;52.544;13.374;2023-04-01T14:35:38;10.70;99.90
2130;DHT22;1071;52.544;13.374;2023-04-01T14:38:26;10.70;99.90
2130;DHT22;1071;52.544;13.374;2023-04-01T14:41:02;10.70;99.90
2130;DHT22;1071;52.544;13.374;2023-04-01T14:43:48;10.60;99.90
2130;DHT22;1071;52.544;13.374;2023-04-01T14:49:36;10.60;99.90
2130;DHT22;1071;52.544;13.374;2023-04-01T14:52:11;10.40;99.90
2130;DHT22;1071;52.544;13.374;2023-04-01T14:54:42;10.40;99.90
2130;DHT22;1071;52.544;13.374;2023-04-01T14:57:12;10.30;99.90
2130;DHT22;1071;52.544;13.374;2023-04-01T14:59:41;10.30;99.90
2130;DHT22;1071;52.544;13.374;2023-04-01T15:02:26;10.30;99.90
2130;DHT22;1071;52.544;13.374;2023-04-01T15:05:10;10.20;99.90
2130;DHT22;1071;52.544;13.374;2023-04-01T15:13:48;10.20;99.90
2130;DHT22;1071;52.544;13.374;2023-04-01T15:16:23;10.10;99.90
2130;DHT22;1071;52.544;13.374;2023-04-01T15:19:00;10.10;99.90
2130;DHT22;1071;52.544;13.374;2023-04-01T15:24:26;10.10;99.90
2130;DHT22;1071;52.544;13.374;2023-04-01T15:27:21;10.10;99.90
2130;DHT22;1071;52.544;13.374;2023-04-01T15:30:15;10.00;99.90
2130;DHT22;1071;52.544;13.374;2023-04-01T15:32:53;10.00;99.90
2130;DHT22;1071;52.544;13.374;2023-04-01T15:35:32;10.00;99.90
2130;DHT22;1071;52.544;13.374;2023-04-01T15:38:06;9.90;99.90
2130;DHT22;1071;52.544;13.374;2023-04-01T15:40:42;9.90;99.90
2130;DHT22;1071;52.544;13.374;2023-04-01T15:43:21;9.90;99.90
2130;DHT22;1071;52.544;13.374;2023-04-01T15:45:54;9.90;99.90
2130;DHT22;1071;52.544;13.374;2023-04-01T15:48:44;9.80;99.90
2130;DHT22;1071;52.544;13.374;2023-04-01T15:51:38;9.80;99.90
2130;DHT22;1071;52.544;13.374;2023-04-01T15:54:27;9.80;99.90
2130;DHT22;1071;52.544;13.374;2023-04-01T15:57:11;9.90;99.90
2130;DHT22;1071;52.544;13.374;2023-04-01T15:59:58;9.90;99.90
2130;DHT22;1071;52.544;13.374;2023-04-01T16:02:40;9.90;99.90
2130;DHT22;1071;52.544;13.374;2023-04-01T16:05:33;9.70;99.90
2130;DHT22;1071;52.544;13.374;2023-04-01T16:08:22;9.70;99.90
2130;DHT22;1071;52.544;13.374;2023-04-01T16:11:03;9.70;99.90
2130;DHT22;1071;52.544;13.374;2023-04-01T16:13:51;9.60;99.90
2130;DHT22;1071;52.544;13.374;2023-04-01T16:16:33;9.60;99.90
2130;DHT22;1071;52.544;13.374;2023-04-01T16:19:28;9.60;99.90
2130;DHT22;1071;52.544;13.374;2023-04-01T16:22:02;9.50;99.90
2130;DHT22;1071;52.544;13.374;2023-04-01T16:24:35;9.50;99.90
2130;DHT22;1071;52.544;13.374;2023-04-01T16:27:11;9.50;99.90
2130;DHT22;1071;52.544;13.374;2023-04-01T16:29:45;9.50;99.90
2130;DHT22;1071;52.544;13.374;2023-04-01T16:32:23;9.50;
2130;DHT22;1071;52.544;13.374;2023-04-01T16:37:48;9.30;99.90
2130;DHT22;1071;52.544;13.374;2023-04-01T16:40:24;9.30;99.90
2130;DHT22;1071;52.544;13.374;2023-04-01T16:42:58;9.30;99.90
2130;DHT22;1071;52.544;13.374;2023-04-01T16:45:36;9.30;99.90
2130;DHT22;1071;52.544;13.374;2023-04-01T16:48:10;9.20;99.90
2130;DHT22;1071;52.544;13.374;2023-04-01T16:50:48;9.10;99.90
2130;DHT22;1071;52.544;13.374;2023-04-01T16:53:30;9.10;99.90
2130;DHT22;1071;52.544;13.374;2023-04-01T16:56:07;9.10;99.90
2130;DHT22;1071;52.544;13.374;2023-04-01T16:58:43;9.20;99.90
2130;DHT22;1071;52.544;13.374;2023-04-01T17:01:19;9.10;99.90
2130;DHT22;1071;52.544;13.374;2023-04-01T17:04:01;9.10;99.90
2130;DHT22;1071;52.544;13.374;2023-04-01T17:06:37;9.10;99.90
2130;DHT22;1071;52.544;13.374;2023-04-01T17:09:18;9.10;99.90
2130;DHT22;1071;52.544;13.374;2023-04-01T17:11:56;9.00;99.90
2130;DHT22;1071;52.544;13.374;2023-04-01T17:14:33;9.00;99.90
2130;DHT22;1071;52.544;13.374;2023-04-01T17:17:38;8.90;99.90
2130;DHT22;1071;52.544;13.374;2023-04-01T17:20:18;8.90;99.90
2130;DHT22;1071;52.544;13.374;2023-04-01T17:22:54;8.90;99.90
2130;DHT22;1071;52.544;13.374;2023-04-01T17:25:38;8.90;99.90
2130;DHT22;1071;52.544;13.374;2023-04-01T17:28:23;8.90;99.90
2130;DHT22;1071;52.544;13.374;2023-04-01T17:31:02;8.80;99.90
2130;DHT22;1071;52.544;13.374;2023-04-01T17:33:54;8.80;99.90
2130;DHT22;1071;52.544;13.374;2023-04-01T17:36:45;8.70;99.90
2130;DHT22;1071;52.544;13.374;2023-04-01T17:42:15;8.60;99.90
2130;DHT22;1071;52.544;13.374;2023-04-01T17:44:53;8.70;99.90
2130;DHT22;1071;52.544;13.374;2023-04-01T17:47:41;8.60;99.90
2130;DHT22;1071;52.544;13.374;2023-04-01T17:50:26;8.60;99.90
2130;DHT22;1071;52.544;13.374;2023-04-01T17:53:13;8.60;99.90
2130;DHT22;1071;52.544;13.374;2023-04-01T17:56:23;8.50;99.90
2130;DHT22;1071;52.544;13.374;2023-04-01T17:58:59;8.60;99.90
2130;DHT22;1071;52.544;13.374;2023-04-01T18:01:40;8.50;99.90
2130;DHT22;1071;52.544;13.374;2023-04-01T18:04:47;8.40;99.90
2130;DHT22;1071;52.544;13.374;2023-04-01T18:07:27;8.30;99.90
2130;DHT22;1071;52.544;13.374;2023-04-01T18:10:20;8.30;99.90
2130;DHT22;1071;52.544;13.374;2023-04-01T18:13:15;8.30;99.90
2130;DHT22;1071;52.544;13.374;2023-04-01T18:15:55;8.30;99.90
2130;DHT22;1071;52.544;13.374;2023-04-01T18:18:37;8.20;99.90
2130;DHT22;1071;52.544;13.374;2023-04-01T18:21:18;8.20;99.90